sensor_id;sensor_type;location;lat;lon;timestamp;pressure;altitude;pressure_sealevel;temperature
76901;BMP280;65859;43.020;25.096;2023-10-31T00:02:16;99429.88;;;12.31
76901;BMP280;65859;43.020;25.096;2023-10-31T00:05:01;99423.38;;;12.08
76901;BMP280;65859;43.020;25.096;2023-10-31T00:07:46;99422.81;;;12.35
76901;BMP280;65859;43.020;25.096;2023-10-31T00:10:30;99419.44;;;12.84
76901;BMP280;65859;43.020;25.096;2023-10-31T00:13:16;99421.72;;;11.53
76901;BMP280;65859;43.020;25.096;2023-10-31T00:16:02;99409.19;;;11.03
76901;BMP280;65859;43.020;25.096;2023-10-31T00:18:47;99408.69;;;11.39
76901;BMP280;65859;43.020;25.096;2023-10-31T00:21:32;99413.06;;;11.85
76901;BMP280;65859;43.020;25.096;2023-10-31T00:24:16;99400.00;;;11.00
76901;BMP280;65859;43.020;25.096;2023-10-31T00:27:01;99397.97;;;10.33
76901;BMP280;65859;43.020;25.096;2023-10-31T00:29:46;99400.00;;;11.30
76901;BMP280;65859;43.020;25.096;2023-10-31T00:32:31;99401.22;;;12.16
76901;BMP280;65859;43.020;25.096;2023-10-31T00:35:15;99393.94;;;11.92
76901;BMP280;65859;43.020;25.096;2023-10-31T00:38:00;99391.31;;;12.37
76901;BMP280;65859;43.020;25.096;2023-10-31T00:40:45;99386.88;;;12.41
76901;BMP280;65859;43.020;25.096;2023-10-31T00:43:31;99380.25;;;12.60
76901;BMP280;65859;43.020;25.096;2023-10-31T00:46:16;99381.00;;;12.36
76901;BMP280;65859;43.020;25.096;2023-10-31T00:49:01;99380.28;;;11.31
76901;BMP280;65859;43.020;25.096;2023-10-31T00:51:46;99379.63;;;11.84
76901;BMP280;65859;43.020;25.096;2023-10-31T00:54:31;99381.25;;;12.43
76901;BMP280;65859;43.020;25.096;2023-10-31T00:57:15;99375.91;;;12.43
76901;BMP280;65859;43.020;25.096;2023-10-31T01:00:00;99372.00;;;12.40
76901;BMP280;65859;43.020;25.096;2023-10-31T01:02:45;99376.47;;;12.36
76901;BMP280;65859;43.020;25.096;2023-10-31T01:05:30;99377.13;;;12.45
76901;BMP280;65859;43.020;25.096;2023-10-31T01:08:16;99361.50;;;12.44
76901;BMP280;65859;43.020;25.096;2023-10-31T01:11:00;99374.34;;;12.42
76901;BMP280;65859;43.020;25.096;2023-10-31T01:13:47;99365.97;;;12.19
76901;BMP280;65859;43.020;25.096;2023-10-31T01:16:32;99367.41;;;10.36
76901;BMP280;65859;43.020;25.096;2023-10-31T01:19:17;99364.69;;;10.62
76901;BMP280;65859;43.020;25.096;2023-10-31T01:22:02;99360.28;;;10.74
76901;BMP280;65859;43.020;25.096;2023-10-31T01:24:46;99363.41;;;10.12
76901;BMP280;65859;43.020;25.096;2023-10-31T01:27:32;99355.00;;;10.02
76901;BMP280;65859;43.020;25.096;2023-10-31T01:30:17;99349.97;;;9.39
76901;BMP280;65859;43.020;25.096;2023-10-31T01:33:01;99346.75;;;9.86
76901;BMP280;65859;43.020;25.096;2023-10-31T01:35:46;99356.69;;;9.63
76901;BMP280;65859;43.020;25.096;2023-10-31T01:38:32;99353.13;;;9.85
76901;BMP280;65859;43.020;25.096;2023-10-31T01:41:17;99354.19;;;9.58
76901;BMP280;65859;43.020;25.096;2023-10-31T01:44:04;99353.72;;;9.73
76901;BMP280;65859;43.020;25.096;2023-10-31T01:46:49;99345.00;;;9.81
76901;BMP280;65859;43.020;25.096;2023-10-31T01:49:35;99344.66;;;9.31
76901;BMP280;65859;43.020;25.096;2023-10-31T01:52:19;99345.09;;;10.45
76901;BMP280;65859;43.020;25.096;2023-10-31T01:55:05;99345.19;;;9.67
76901;BMP280;65859;43.020;25.096;2023-10-31T01:57:50;99351.84;;;9.39
76901;BMP280;65859;43.020;25.096;2023-10-31T02:00:35;99351.72;;;9.96
76901;BMP280;65859;43.020;25.096;2023-10-31T02:03:21;99347.84;;;9.67
76901;BMP280;65859;43.020;25.096;2023-10-31T02:06:06;99343.25;;;9.25
76901;BMP280;65859;43.020;25.096;2023-10-31T02:08:51;99343.41;;;9.28
76901;BMP280;65859;43.020;25.096;2023-10-31T02:11:37;99350.56;;;9.45
76901;BMP280;65859;43.020;25.096;2023-10-31T02:14:24;99354.06;;;9.89
76901;BMP280;65859;43.020;25.096;2023-10-31T02:17:09;99350.13;;;10.21
76901;BMP280;65859;43.020;25.096;2023-10-31T02:19:54;99346.72;;;10.67
76901;BMP280;65859;43.020;25.096;2023-10-31T02:22:39;99346.09;;;10.06
76901;BMP280;65859;43.020;25.096;2023-10-31T02:25:23;99340.69;;;9.02
76901;BMP280;65859;43.020;25.096;2023-10-31T02:28:08;99347.94;;;9.45
76901;BMP280;65859;43.020;25.096;2023-10-31T02:30:54;99345.31;;;8.97
76901;BMP280;65859;43.020;25.096;2023-10-31T02:33:39;99347.34;;;8.91
76901;BMP280;65859;43.020;25.096;2023-10-31T02:36:24;99346.81;;;8.80
76901;BMP280;65859;43.020;25.096;2023-10-31T02:39:08;99346.00;;;8.71
76901;BMP280;65859;43.020;25.096;2023-10-31T02:41:53;99338.03;;;8.62
76901;BMP280;65859;43.020;25.096;2023-10-31T02:44:39;99341.31;;;8.68
76901;BMP280;65859;43.020;25.096;2023-10-31T02:47:24;99341.81;;;8.79
76901;BMP280;65859;43.020;25.096;2023-10-31T02:50:10;99345.97;;;9.68
76901;BMP280;65859;43.020;25.096;2023-10-31T02:52:54;99338.56;;;10.25
76901;BMP280;65859;43.020;25.096;2023-10-31T02:55:39;99349.78;;;9.44
76901;BMP280;65859;43.020;25.096;2023-10-31T02:58:24;99344.56;;;9.88
76901;BMP280;65859;43.020;25.096;2023-10-31T03:01:08;99357.97;;;9.83
76901;BMP280;65859;43.020;25.096;2023-10-31T03:03:53;99352.69;;;8.69
76901;BMP280;65859;43.020;25.096;2023-10-31T03:06:38;99349.91;;;8.74
76901;BMP280;65859;43.020;25.096;2023-10-31T03:09:23;99347.94;;;8.88
76901;BMP280;65859;43.020;25.096;2023-10-31T03:12:07;99350.31;;;9.72
76901;BMP280;65859;43.020;25.096;2023-10-31T03:14:53;99345.81;;;10.63
76901;BMP280;65859;43.020;25.096;2023-10-31T03:17:38;99350.53;;;10.87
76901;BMP280;65859;43.020;25.096;2023-10-31T03:20:23;99343.28;;;11.05
76901;BMP280;65859;43.020;25.096;2023-10-31T03:23:08;99346.50;;;10.90
76901;BMP280;65859;43.020;25.096;2023-10-31T03:25:53;99347.13;;;10.87
76901;BMP280;65859;43.020;25.096;2023-10-31T03:28:38;99345.47;;;10.73
76901;BMP280;65859;43.020;25.096;2023-10-31T03:31:22;99345.13;;;10.66
76901;BMP280;65859;43.020;25.096;2023-10-31T03:34:08;99350.69;;;10.52
76901;BMP280;65859;43.020;25.096;2023-10-31T03:36:52;99345.13;;;10.28
76901;BMP280;65859;43.020;25.096;2023-10-31T03:39:38;99342.63;;;10.32
76901;BMP280;65859;43.020;25.096;2023-10-31T03:42:22;99340.13;;;10.26
76901;BMP280;65859;43.020;25.096;2023-10-31T03:45:09;99340.19;;;10.65
76901;BMP280;65859;43.020;25.096;2023-10-31T03:47:54;99345.56;;;10.86
76901;BMP280;65859;43.020;25.096;2023-10-31T03:50:38;99343.56;;;10.74
76901;BMP280;65859;43.020;25.096;2023-10-31T03:53:24;99343.88;;;10.34
76901;BMP280;65859;43.020;25.096;2023-10-31T03:56:09;99349.41;;;9.11
76901;BMP280;65859;43.020;25.096;2023-10-31T03:58:54;99325.91;;;8.61
76901;BMP280;65859;43.020;25.096;2023-10-31T04:01:39;99352.88;;;9.21
76901;BMP280;65859;43.020;25.096;2023-10-31T04:04:25;99346.88;;;9.89
76901;BMP280;65859;43.020;25.096;2023-10-31T04:07:09;99355.66;;;8.45
76901;BMP280;65859;43.020;25.096;2023-10-31T04:09:54;99351.16;;;8.23
76901;BMP280;65859;43.020;25.096;2023-10-31T04:12:41;99345.41;;;7.98
76901;BMP280;65859;43.020;25.096;2023-10-31T04:15:27;99345.34;;;8.12
76901;BMP280;65859;43.020;25.096;2023-10-31T04:18:12;99345.13;;;8.53
76901;BMP280;65859;43.020;25.096;2023-10-31T04:20:59;99346.84;;;8.89
76901;BMP280;65859;43.020;25.096;2023-10-31T04:23:43;99343.59;;;9.49
76901;BMP280;65859;43.020;25.096;2023-10-31T04:26:28;99345.22;;;9.02
76901;BMP280;65859;43.020;25.096;2023-10-31T04:29:13;99345.72;;;9.12
76901;BMP280;65859;43.020;25.096;2023-10-31T04:31:59;99339.16;;;9.18
76901;BMP280;65859;43.020;25.096;2023-10-31T04:34:43;99341.09;;;8.87
76901;BMP280;65859;43.020;25.096;2023-10-31T04:37:28;99345.69;;;8.19
76901;BMP280;65859;43.020;25.096;2023-10-31T04:40:13;99343.13;;;8.28
76901;BMP280;65859;43.020;25.096;2023-10-31T04:42:58;99337.97;;;7.87
76901;BMP280;65859;43.020;25.096;2023-10-31T04:45:44;99340.69;;;7.95
76901;BMP280;65859;43.020;25.096;2023-10-31T04:48:29;99328.03;;;8.90
76901;BMP280;65859;43.020;25.096;2023-10-31T04:51:14;99332.56;;;8.59
76901;BMP280;65859;43.020;25.096;2023-10-31T04:53:59;99340.59;;;7.50
76901;BMP280;65859;43.020;25.096;2023-10-31T04:56:43;99336.19;;;7.59
76901;BMP280;65859;43.020;25.096;2023-10-31T04:59:29;99340.59;;;7.50
76901;BMP280;65859;43.020;25.096;2023-10-31T05:02:13;99339.59;;;7.74
76901;BMP280;65859;43.020;25.096;2023-10-31T05:04:58;99331.19;;;7.94
76901;BMP280;65859;43.020;25.096;2023-10-31T05:07:42;99329.75;;;8.24
76901;BMP280;65859;43.020;25.096;2023-10-31T05:10:27;99317.47;;;8.06
76901;BMP280;65859;43.020;25.096;2023-10-31T05:13:12;99314.50;;;8.92
76901;BMP280;65859;43.020;25.096;2023-10-31T05:15:59;99323.16;;;9.93
76901;BMP280;65859;43.020;25.096;2023-10-31T05:18:43;99323.91;;;10.28
76901;BMP280;65859;43.020;25.096;2023-10-31T05:21:29;99318.16;;;10.17
76901;BMP280;65859;43.020;25.096;2023-10-31T05:24:13;99315.97;;;10.19
76901;BMP280;65859;43.020;25.096;2023-10-31T05:26:58;99313.78;;;10.21
76901;BMP280;65859;43.020;25.096;2023-10-31T05:29:43;99308.63;;;10.16
76901;BMP280;65859;43.020;25.096;2023-10-31T05:32:28;99308.25;;;9.80
76901;BMP280;65859;43.020;25.096;2023-10-31T05:35:13;99302.16;;;9.70
76901;BMP280;65859;43.020;25.096;2023-10-31T05:37:58;99321.84;;;9.04
76901;BMP280;65859;43.020;25.096;2023-10-31T05:40:42;99321.00;;;9.95
76901;BMP280;65859;43.020;25.096;2023-10-31T05:43:27;99314.50;;;10.48
76901;BMP280;65859;43.020;25.096;2023-10-31T05:46:13;99320.03;;;11.23
76901;BMP280;65859;43.020;25.096;2023-10-31T05:48:59;99331.91;;;11.46
76901;BMP280;65859;43.020;25.096;2023-10-31T05:51:44;99322.97;;;11.51
76901;BMP280;65859;43.020;25.096;2023-10-31T05:54:29;99338.69;;;11.44
76901;BMP280;65859;43.020;25.096;2023-10-31T05:57:14;99348.34;;;11.60
76901;BMP280;65859;43.020;25.096;2023-10-31T05:59:59;99340.56;;;11.76
76901;BMP280;65859;43.020;25.096;2023-10-31T06:02:44;99347.28;;;12.40
76901;BMP280;65859;43.020;25.096;2023-10-31T06:05:29;99341.88;;;12.48
76901;BMP280;65859;43.020;25.096;2023-10-31T06:08:13;99347.31;;;12.89
76901;BMP280;65859;43.020;25.096;2023-10-31T06:10:59;99345.00;;;12.87
76901;BMP280;65859;43.020;25.096;2023-10-31T06:13:45;99355.28;;;13.01
76901;BMP280;65859;43.020;25.096;2023-10-31T06:16:38;99349.19;;;12.88
76901;BMP280;65859;43.020;25.096;2023-10-31T06:19:23;99350.19;;;12.96
76901;BMP280;65859;43.020;25.096;2023-10-31T06:22:08;99347.41;;;13.17
76901;BMP280;65859;43.020;25.096;2023-10-31T06:24:52;99338.44;;;12.85
76901;BMP280;65859;43.020;25.096;2023-10-31T06:27:37;99341.59;;;13.15
76901;BMP280;65859;43.020;25.096;2023-10-31T06:30:22;99342.06;;;11.65
76901;BMP280;65859;43.020;25.096;2023-10-31T06:33:09;99340.94;;;13.18
76901;BMP280;65859;43.020;25.096;2023-10-31T06:35:55;99346.63;;;13.56
76901;BMP280;65859;43.020;25.096;2023-10-31T06:38:40;99341.78;;;13.46
76901;BMP280;65859;43.020;25.096;2023-10-31T06:41:25;99348.88;;;12.08
76901;BMP280;65859;43.020;25.096;2023-10-31T06:44:11;99359.06;;;12.88
76901;BMP280;65859;43.020;25.096;2023-10-31T06:46:57;99350.38;;;13.15
76901;BMP280;65859;43.020;25.096;2023-10-31T06:49:41;99354.06;;;13.11
76901;BMP280;65859;43.020;25.096;2023-10-31T06:52:26;99352.44;;;13.46
76901;BMP280;65859;43.020;25.096;2023-10-31T06:55:11;99355.72;;;14.27
76901;BMP280;65859;43.020;25.096;2023-10-31T06:57:56;99348.69;;;13.63
76901;BMP280;65859;43.020;25.096;2023-10-31T07:00:41;99343.88;;;14.44
76901;BMP280;65859;43.020;25.096;2023-10-31T07:03:26;99344.72;;;13.17
76901;BMP280;65859;43.020;25.096;2023-10-31T07:06:11;99347.50;;;13.48
76901;BMP280;65859;43.020;25.096;2023-10-31T07:08:55;99343.44;;;13.95
76901;BMP280;65859;43.020;25.096;2023-10-31T07:11:41;99340.97;;;13.74
76901;BMP280;65859;43.020;25.096;2023-10-31T07:14:26;99329.25;;;14.54
76901;BMP280;65859;43.020;25.096;2023-10-31T07:17:12;99334.88;;;15.80
76901;BMP280;65859;43.020;25.096;2023-10-31T07:19:57;99327.97;;;16.78
76901;BMP280;65859;43.020;25.096;2023-10-31T07:22:43;99323.72;;;17.07
76901;BMP280;65859;43.020;25.096;2023-10-31T07:25:28;99322.41;;;15.26
76901;BMP280;65859;43.020;25.096;2023-10-31T07:28:13;99323.13;;;15.04
76901;BMP280;65859;43.020;25.096;2023-10-31T07:30:58;99321.09;;;15.78
76901;BMP280;65859;43.020;25.096;2023-10-31T07:33:45;99321.81;;;15.17
76901;BMP280;65859;43.020;25.096;2023-10-31T07:36:30;99316.56;;;17.18
76901;BMP280;65859;43.020;25.096;2023-10-31T07:39:16;99315.28;;;18.31
76901;BMP280;65859;43.020;25.096;2023-10-31T07:42:01;99322.59;;;18.34
76901;BMP280;65859;43.020;25.096;2023-10-31T07:44:46;99311.81;;;19.24
76901;BMP280;65859;43.020;25.096;2023-10-31T07:47:32;99307.22;;;20.06
76901;BMP280;65859;43.020;25.096;2023-10-31T07:50:17;99298.53;;;18.62
76901;BMP280;65859;43.020;25.096;2023-10-31T07:53:02;99300.28;;;20.02
76901;BMP280;65859;43.020;25.096;2023-10-31T07:55:48;99299.94;;;19.22
76901;BMP280;65859;43.020;25.096;2023-10-31T07:58:33;99283.03;;;19.82
76901;BMP280;65859;43.020;25.096;2023-10-31T08:01:19;99282.88;;;20.38
76901;BMP280;65859;43.020;25.096;2023-10-31T08:04:03;99273.91;;;21.29
76901;BMP280;65859;43.020;25.096;2023-10-31T08:06:49;99270.72;;;21.41
76901;BMP280;65859;43.020;25.096;2023-10-31T08:09:33;99258.03;;;21.83
76901;BMP280;65859;43.020;25.096;2023-10-31T08:12:18;99259.56;;;21.43
76901;BMP280;65859;43.020;25.096;2023-10-31T08:15:03;99240.25;;;21.85
76901;BMP280;65859;43.020;25.096;2023-10-31T08:17:49;99233.44;;;22.08
76901;BMP280;65859;43.020;25.096;2023-10-31T08:20:33;99221.91;;;22.04
76901;BMP280;65859;43.020;25.096;2023-10-31T08:23:18;99224.44;;;20.98
76901;BMP280;65859;43.020;25.096;2023-10-31T08:26:03;99222.63;;;21.29
76901;BMP280;65859;43.020;25.096;2023-10-31T08:28:48;99214.94;;;22.03
76901;BMP280;65859;43.020;25.096;2023-10-31T08:31:33;99206.94;;;21.13
76901;BMP280;65859;43.020;25.096;2023-10-31T08:34:17;99198.22;;;20.98
76901;BMP280;65859;43.020;25.096;2023-10-31T08:37:03;99205.97;;;20.89
76901;BMP280;65859;43.020;25.096;2023-10-31T08:39:48;99190.72;;;21.58
76901;BMP280;65859;43.020;25.096;2023-10-31T08:42:32;99185.41;;;22.19
76901;BMP280;65859;43.020;25.096;2023-10-31T08:45:18;99172.25;;;23.61
76901;BMP280;65859;43.020;25.096;2023-10-31T08:48:04;99169.41;;;24.24
76901;BMP280;65859;43.020;25.096;2023-10-31T08:50:49;99160.16;;;24.70
76901;BMP280;65859;43.020;25.096;2023-10-31T08:53:33;99151.47;;;24.92
76901;BMP280;65859;43.020;25.096;2023-10-31T08:56:18;99153.53;;;25.16
76901;BMP280;65859;43.020;25.096;2023-10-31T08:59:03;99144.88;;;25.63
76901;BMP280;65859;43.020;25.096;2023-10-31T09:01:49;99138.50;;;25.41
76901;BMP280;65859;43.020;25.096;2023-10-31T09:04:34;99123.25;;;26.57
76901;BMP280;65859;43.020;25.096;2023-10-31T09:07:19;99109.78;;;26.41
76901;BMP280;65859;43.020;25.096;2023-10-31T09:10:05;99111.09;;;26.93
76901;BMP280;65859;43.020;25.096;2023-10-31T09:12:50;99106.69;;;27.08
76901;BMP280;65859;43.020;25.096;2023-10-31T09:15:35;99095.72;;;25.96
76901;BMP280;65859;43.020;25.096;2023-10-31T09:18:22;99099.38;;;26.14
76901;BMP280;65859;43.020;25.096;2023-10-31T09:21:06;99091.81;;;27.53
76901;BMP280;65859;43.020;25.096;2023-10-31T09:23:51;99089.56;;;27.70
76901;BMP280;65859;43.020;25.096;2023-10-31T09:26:36;99087.63;;;27.79
76901;BMP280;65859;43.020;25.096;2023-10-31T09:29:21;99081.66;;;28.21
76901;BMP280;65859;43.020;25.096;2023-10-31T09:32:06;99084.97;;;28.25
76901;BMP280;65859;43.020;25.096;2023-10-31T09:34:51;99075.91;;;28.37
76901;BMP280;65859;43.020;25.096;2023-10-31T09:45:09;99048.47;;;30.88
76901;BMP280;65859;43.020;25.096;2023-10-31T09:47:54;99042.50;;;31.80
76901;BMP280;65859;43.020;25.096;2023-10-31T09:50:41;99034.56;;;32.96
76901;BMP280;65859;43.020;25.096;2023-10-31T09:53:27;99026.44;;;33.19
76901;BMP280;65859;43.020;25.096;2023-10-31T09:56:15;99039.78;;;34.07
76901;BMP280;65859;43.020;25.096;2023-10-31T09:59:01;99037.53;;;34.23
76901;BMP280;65859;43.020;25.096;2023-10-31T10:01:47;99036.78;;;34.56
76901;BMP280;65859;43.020;25.096;2023-10-31T10:04:34;99028.94;;;35.51
76901;BMP280;65859;43.020;25.096;2023-10-31T10:07:19;99015.69;;;35.44
76901;BMP280;65859;43.020;25.096;2023-10-31T10:10:04;99014.63;;;37.52
76901;BMP280;65859;43.020;25.096;2023-10-31T10:12:52;99003.31;;;36.70
76901;BMP280;65859;43.020;25.096;2023-10-31T10:15:51;99012.13;;;37.67
76901;BMP280;65859;43.020;25.096;2023-10-31T10:18:39;99002.16;;;37.27
76901;BMP280;65859;43.020;25.096;2023-10-31T10:21:25;98995.72;;;36.52
76901;BMP280;65859;43.020;25.096;2023-10-31T10:24:12;98995.00;;;36.75
76901;BMP280;65859;43.020;25.096;2023-10-31T10:26:57;98997.63;;;38.06
76901;BMP280;65859;43.020;25.096;2023-10-31T10:29:42;98985.63;;;38.57
76901;BMP280;65859;43.020;25.096;2023-10-31T10:32:28;98977.50;;;38.59
76901;BMP280;65859;43.020;25.096;2023-10-31T10:35:13;98966.16;;;39.79
76901;BMP280;65859;43.020;25.096;2023-10-31T10:38:00;98964.59;;;39.29
76901;BMP280;65859;43.020;25.096;2023-10-31T10:40:48;98958.38;;;38.68
76901;BMP280;65859;43.020;25.096;2023-10-31T10:43:37;98946.91;;;39.60
76901;BMP280;65859;43.020;25.096;2023-10-31T10:46:27;98944.50;;;39.02
76901;BMP280;65859;43.020;25.096;2023-10-31T10:49:15;98927.69;;;39.62
76901;BMP280;65859;43.020;25.096;2023-10-31T10:52:16;98925.53;;;39.48
76901;BMP280;65859;43.020;25.096;2023-10-31T10:55:20;98935.56;;;39.30
76901;BMP280;65859;43.020;25.096;2023-10-31T11:01:20;98925.13;;;38.02
76901;BMP280;65859;43.020;25.096;2023-10-31T11:04:05;98917.31;;;38.54
76901;BMP280;65859;43.020;25.096;2023-10-31T11:06:51;98893.66;;;33.41
76901;BMP280;65859;43.020;25.096;2023-10-31T11:09:38;98907.94;;;34.39
76901;BMP280;65859;43.020;25.096;2023-10-31T11:12:24;98888.44;;;32.72
76901;BMP280;65859;43.020;25.096;2023-10-31T11:15:12;98871.81;;;31.81
76901;BMP280;65859;43.020;25.096;2023-10-31T11:17:59;98855.00;;;31.22
76901;BMP280;65859;43.020;25.096;2023-10-31T11:20:47;98862.25;;;31.45
76901;BMP280;65859;43.020;25.096;2023-10-31T11:23:33;98854.56;;;30.48
76901;BMP280;65859;43.020;25.096;2023-10-31T11:26:17;98848.16;;;30.36
76901;BMP280;65859;43.020;25.096;2023-10-31T11:29:06;98848.25;;;30.42
76901;BMP280;65859;43.020;25.096;2023-10-31T11:31:51;98834.41;;;30.16
76901;BMP280;65859;43.020;25.096;2023-10-31T11:34:38;98836.00;;;30.08
76901;BMP280;65859;43.020;25.096;2023-10-31T11:37:31;98827.97;;;30.04
76901;BMP280;65859;43.020;25.096;2023-10-31T11:40:20;98816.28;;;30.04
76901;BMP280;65859;43.020;25.096;2023-10-31T11:43:06;98814.13;;;29.64
76901;BMP280;65859;43.020;25.096;2023-10-31T11:45:53;98813.28;;;29.58
76901;BMP280;65859;43.020;25.096;2023-10-31T11:48:49;98802.50;;;29.54
76901;BMP280;65859;43.020;25.096;2023-10-31T11:51:36;98803.28;;;29.69
76901;BMP280;65859;43.020;25.096;2023-10-31T11:54:21;98793.44;;;29.10
76901;BMP280;65859;43.020;25.096;2023-10-31T11:57:06;98801.56;;;29.04
76901;BMP280;65859;43.020;25.096;2023-10-31T11:59:51;98794.41;;;28.83
76901;BMP280;65859;43.020;25.096;2023-10-31T12:02:35;98784.66;;;28.91
76901;BMP280;65859;43.020;25.096;2023-10-31T12:05:20;98780.00;;;28.82
76901;BMP280;65859;43.020;25.096;2023-10-31T12:08:04;98774.53;;;28.25
76901;BMP280;65859;43.020;25.096;2023-10-31T12:10:50;98775.56;;;28.37
76901;BMP280;65859;43.020;25.096;2023-10-31T12:13:42;98767.13;;;27.47
76901;BMP280;65859;43.020;25.096;2023-10-31T12:16:31;98764.09;;;27.45
76901;BMP280;65859;43.020;25.096;2023-10-31T12:19:16;98763.66;;;27.38
76901;BMP280;65859;43.020;25.096;2023-10-31T12:22:00;98765.34;;;27.17
76901;BMP280;65859;43.020;25.096;2023-10-31T12:24:48;98757.91;;;27.26
76901;BMP280;65859;43.020;25.096;2023-10-31T12:27:48;98752.00;;;27.10
76901;BMP280;65859;43.020;25.096;2023-10-31T12:30:45;98762.13;;;26.82
76901;BMP280;65859;43.020;25.096;2023-10-31T12:33:30;98755.66;;;27.25
76901;BMP280;65859;43.020;25.096;2023-10-31T12:36:16;98755.66;;;27.34
76901;BMP280;65859;43.020;25.096;2023-10-31T12:39:00;98750.88;;;26.62
76901;BMP280;65859;43.020;25.096;2023-10-31T12:41:46;98740.63;;;26.26
76901;BMP280;65859;43.020;25.096;2023-10-31T12:44:32;98747.34;;;26.12
76901;BMP280;65859;43.020;25.096;2023-10-31T12:47:22;98732.16;;;26.02
76901;BMP280;65859;43.020;25.096;2023-10-31T12:50:14;98739.41;;;25.96
76901;BMP280;65859;43.020;25.096;2023-10-31T12:52:59;98734.88;;;25.93
76901;BMP280;65859;43.020;25.096;2023-10-31T12:55:45;98732.78;;;25.75
76901;BMP280;65859;43.020;25.096;2023-10-31T12:58:30;98729.59;;;25.67
76901;BMP280;65859;43.020;25.096;2023-10-31T13:01:14;98722.63;;;25.66
76901;BMP280;65859;43.020;25.096;2023-10-31T13:04:02;98724.06;;;25.58
76901;BMP280;65859;43.020;25.096;2023-10-31T13:07:01;98721.47;;;25.54
76901;BMP280;65859;43.020;25.096;2023-10-31T13:09:46;98724.19;;;25.76
76901;BMP280;65859;43.020;25.096;2023-10-31T13:12:33;98720.28;;;25.77
76901;BMP280;65859;43.020;25.096;2023-10-31T13:15:19;98719.63;;;25.73
76901;BMP280;65859;43.020;25.096;2023-10-31T13:18:04;98718.63;;;25.58
76901;BMP280;65859;43.020;25.096;2023-10-31T13:20:49;98704.09;;;25.52
76901;BMP280;65859;43.020;25.096;2023-10-31T13:23:34;98700.53;;;25.64
76901;BMP280;65859;43.020;25.096;2023-10-31T13:26:19;98699.31;;;25.56
76901;BMP280;65859;43.020;25.096;2023-10-31T13:29:04;98695.38;;;25.57
76901;BMP280;65859;43.020;25.096;2023-10-31T13:31:49;98686.00;;;25.58
76901;BMP280;65859;43.020;25.096;2023-10-31T13:34:34;98689.69;;;25.42
76901;BMP280;65859;43.020;25.096;2023-10-31T13:37:19;98685.00;;;25.21
76901;BMP280;65859;43.020;25.096;2023-10-31T13:40:06;98683.47;;;25.20
76901;BMP280;65859;43.020;25.096;2023-10-31T13:42:53;98691.75;;;25.16
76901;BMP280;65859;43.020;25.096;2023-10-31T13:45:37;98678.19;;;25.04
76901;BMP280;65859;43.020;25.096;2023-10-31T13:48:23;98684.78;;;24.94
76901;BMP280;65859;43.020;25.096;2023-10-31T13:51:08;98685.09;;;25.17
76901;BMP280;65859;43.020;25.096;2023-10-31T13:53:53;98688.19;;;25.19
76901;BMP280;65859;43.020;25.096;2023-10-31T13:56:38;98673.97;;;25.15
76901;BMP280;65859;43.020;25.096;2023-10-31T13:59:23;98663.34;;;25.08
76901;BMP280;65859;43.020;25.096;2023-10-31T14:02:08;98659.97;;;25.04
76901;BMP280;65859;43.020;25.096;2023-10-31T14:04:54;98660.03;;;25.13
76901;BMP280;65859;43.020;25.096;2023-10-31T14:07:39;98658.91;;;24.89
76901;BMP280;65859;43.020;25.096;2023-10-31T14:10:24;98654.25;;;24.89
76901;BMP280;65859;43.020;25.096;2023-10-31T14:13:11;98659.34;;;25.00
76901;BMP280;65859;43.020;25.096;2023-10-31T14:15:56;98656.91;;;24.80
76901;BMP280;65859;43.020;25.096;2023-10-31T14:18:41;98651.19;;;25.44
76901;BMP280;65859;43.020;25.096;2023-10-31T14:21:27;98651.72;;;25.51
76901;BMP280;65859;43.020;25.096;2023-10-31T14:24:12;98655.13;;;25.43
76901;BMP280;65859;43.020;25.096;2023-10-31T14:26:57;98649.63;;;25.34
76901;BMP280;65859;43.020;25.096;2023-10-31T14:29:43;98651.78;;;25.39
76901;BMP280;65859;43.020;25.096;2023-10-31T14:32:28;98645.31;;;25.23
76901;BMP280;65859;43.020;25.096;2023-10-31T14:35:13;98649.50;;;25.15
76901;BMP280;65859;43.020;25.096;2023-10-31T14:37:59;98643.44;;;25.11
76901;BMP280;65859;43.020;25.096;2023-10-31T14:40:44;98654.44;;;25.08
76901;BMP280;65859;43.020;25.096;2023-10-31T14:43:29;98639.81;;;25.14
76901;BMP280;65859;43.020;25.096;2023-10-31T14:46:14;98637.94;;;25.02
76901;BMP280;65859;43.020;25.096;2023-10-31T14:48:59;98642.38;;;24.96
76901;BMP280;65859;43.020;25.096;2023-10-31T14:51:44;98650.94;;;24.73
76901;BMP280;65859;43.020;25.096;2023-10-31T15:29:01;98643.19;;;23.57
76901;BMP280;65859;43.020;25.096;2023-10-31T15:31:47;98646.84;;;23.38
76901;BMP280;65859;43.020;25.096;2023-10-31T15:34:34;98651.66;;;23.17
76901;BMP280;65859;43.020;25.096;2023-10-31T15:37:21;98654.53;;;23.10
76901;BMP280;65859;43.020;25.096;2023-10-31T15:40:07;98653.44;;;23.08
76901;BMP280;65859;43.020;25.096;2023-10-31T15:42:52;98643.25;;;23.12
76901;BMP280;65859;43.020;25.096;2023-10-31T15:45:37;98629.72;;;23.12
76901;BMP280;65859;43.020;25.096;2023-10-31T15:48:25;98636.53;;;23.04
76901;BMP280;65859;43.020;25.096;2023-10-31T15:51:10;98647.44;;;23.00
76901;BMP280;65859;43.020;25.096;2023-10-31T15:53:55;98656.88;;;23.08
76901;BMP280;65859;43.020;25.096;2023-10-31T15:56:40;98651.25;;;23.03
76901;BMP280;65859;43.020;25.096;2023-10-31T15:59:25;98651.69;;;22.69
76901;BMP280;65859;43.020;25.096;2023-10-31T16:02:10;98644.75;;;22.68
76901;BMP280;65859;43.020;25.096;2023-10-31T16:04:55;98644.84;;;22.64
76901;BMP280;65859;43.020;25.096;2023-10-31T16:07:41;98647.22;;;22.46
76901;BMP280;65859;43.020;25.096;2023-10-31T16:10:26;98654.59;;;22.25
76901;BMP280;65859;43.020;25.096;2023-10-31T16:13:10;98653.03;;;22.08
76901;BMP280;65859;43.020;25.096;2023-10-31T16:15:55;98652.84;;;21.99
76901;BMP280;65859;43.020;25.096;2023-10-31T16:18:40;98649.81;;;21.97
76901;BMP280;65859;43.020;25.096;2023-10-31T16:21:25;98657.28;;;21.70
76901;BMP280;65859;43.020;25.096;2023-10-31T16:24:11;98659.22;;;21.69
76901;BMP280;65859;43.020;25.096;2023-10-31T16:26:56;98669.81;;;21.60
76901;BMP280;65859;43.020;25.096;2023-10-31T16:29:41;98672.25;;;21.54